Time;durP1;ratioP1;P1;durP2;ratioP2;P2;SDS_P1;SDS_P2;PMS_P1;PMS_P2;Temp;Humidity;BMP_temperature;BMP_pressure;BME280_temperature;BME280_humidity;BME280_pressure;Samples;Min_cycle;Max_cycle;Signal;HPM_P1;HPM_P2
2022/12/17 13:06:40;;;;;;;57.65;28.27;;;;;;;-0.63;92.68;102453.53;5068838;28;20090;-70
2022/12/17 13:09:21;;;;;;;51.70;27.85;;;;;;;-0.61;92.83;102447.38;5069409;28;20049;-71
2022/12/17 13:12:07;;;;;;;51.10;27.15;;;;;;;-0.66;93.25;102446.50;5070098;28;20867;-70
2022/12/17 13:14:34;;;;;;;54.03;28.98;;;;;;;-0.64;93.76;102441.22;5052539;28;20028;-71
2022/12/17 13:17:26;;;;;;;51.55;29.45;;;;;;;-0.65;93.33;102442.97;5069715;28;20029;-70
2022/12/17 13:20:01;;;;;;;51.10;27.35;;;;;;;-0.55;93.87;102449.13;5070314;28;20040;-71
2022/12/17 13:22:32;;;;;;;56.50;30.38;;;;;;;-0.56;92.82;102447.38;5071591;28;20566;-71
2022/12/17 13:25:20;;;;;;;50.70;29.85;;;;;;;-0.57;93.40;102440.31;5071882;28;20032;-70
2022/12/17 13:27:46;;;;;;;57.53;29.25;;;;;;;-0.58;93.00;102439.44;5070611;28;20033;-70
2022/12/17 13:30:22;;;;;;;53.58;29.42;;;;;;;-0.63;92.86;102435.94;5058260;28;20481;-69
2022/12/17 13:32:57;;;;;;;51.90;29.10;;;;;;;-0.65;92.80;102432.41;5056760;28;20050;-71
2022/12/17 13:35:42;;;;;;;55.08;31.02;;;;;;;-0.64;92.91;102433.31;5071669;28;20033;-69
2022/12/17 13:38:37;;;;;;;54.60;29.23;;;;;;;-0.62;92.67;102436.81;5072765;28;20096;-71
2022/12/17 13:41:15;;;;;;;54.38;28.08;;;;;;;-0.65;92.57;102437.69;5055141;28;20032;-71
2022/12/17 13:43:48;;;;;;;50.22;26.95;;;;;;;-0.61;92.98;102438.59;5053537;28;20031;-70
2022/12/17 13:46:17;;;;;;;47.50;27.27;;;;;;;-0.64;92.75;102436.81;5070695;28;20043;-72
2022/12/17 13:48:43;;;;;;;53.58;28.27;;;;;;;-0.63;92.99;102435.03;5069810;28;20028;-70
2022/12/17 13:51:18;;;;;;;57.75;30.27;;;;;;;-0.64;92.72;102435.94;5072033;28;20039;-70
2022/12/17 13:53:54;;;;;;;48.85;28.13;;;;;;;-0.62;93.17;102434.16;5074391;28;20036;-70
2022/12/17 13:56:29;;;;;;;53.78;27.95;;;;;;;-0.62;92.75;102442.09;5056541;28;20165;-72
2022/12/17 13:58:56;;;;;;;55.50;30.15;;;;;;;-0.63;92.63;102441.22;5070212;28;20613;-69
2022/12/17 14:01:22;;;;;;;56.25;29.88;;;;;;;-0.64;92.50;102431.53;5067966;28;20491;-72
2022/12/17 14:03:50;;;;;;;56.17;29.35;;;;;;;-0.68;92.61;102436.81;5070160;28;20041;-70
2022/12/17 14:06:16;;;;;;;56.63;31.00;;;;;;;-0.69;92.41;102435.06;5050569;28;20032;-70
2022/12/17 14:08:42;;;;;;;58.03;33.13;;;;;;;-0.70;92.79;102436.81;5069652;28;20063;-71
2022/12/17 14:13:54;;;;;;;53.15;29.50;;;;;;;-0.66;92.85;102432.41;5071071;28;20047;-70
2022/12/17 14:16:20;;;;;;;52.75;27.10;;;;;;;-0.72;92.77;102439.47;5067857;28;20029;-70
2022/12/17 14:18:51;;;;;;;55.25;29.42;;;;;;;-0.82;92.37;102445.63;5069473;28;20265;-69
2022/12/17 14:21:17;;;;;;;54.45;25.88;;;;;;;-0.86;92.90;102443.88;5070223;28;20044;-70
2022/12/17 14:23:44;;;;;;;49.83;27.73;;;;;;;-0.86;92.90;102449.16;5066801;28;20502;-70
2022/12/17 14:26:11;;;;;;;56.53;30.27;;;;;;;-0.89;92.63;102455.31;5068612;28;21433;-70
2022/12/17 14:28:48;;;;;;;51.72;27.10;;;;;;;-0.88;92.72;102456.16;5061089;28;20496;-70
2022/12/17 14:31:13;;;;;;;48.33;26.60;;;;;;;-0.90;92.88;102456.16;5067796;28;20020;-71
2022/12/17 14:33:39;;;;;;;51.20;26.02;;;;;;;-0.90;93.34;102452.66;5068133;28;20025;-72
2022/12/17 14:36:18;;;;;;;49.70;26.13;;;;;;;-0.92;93.26;102452.66;5069580;28;20716;-70
2022/12/17 14:38:58;;;;;;;53.40;27.03;;;;;;;-0.89;93.55;102449.16;5068841;28;20028;-71
2022/12/17 14:44:21;;;;;;;56.13;27.73;;;;;;;-0.86;93.19;102458.81;5068720;28;20051;-70
2022/12/17 14:46:46;;;;;;;50.65;27.27;;;;;;;-0.92;92.54;102467.63;5068670;28;20020;-71
2022/12/17 14:49:19;;;;;;;55.38;31.20;;;;;;;-0.93;92.68;102474.66;5067854;28;20965;-71
2022/12/17 14:51:44;;;;;;;56.00;28.67;;;;;;;-0.92;92.80;102470.28;5069604;28;20023;-71
2022/12/17 14:54:12;;;;;;;52.53;28.20;;;;;;;-0.94;92.71;102472.91;5070714;28;20028;-70
2022/12/17 14:56:37;;;;;;;54.92;30.08;;;;;;;-0.95;92.34;102470.25;5069474;28;20103;-71
2022/12/17 14:59:03;;;;;;;55.85;30.50;;;;;;;-0.96;93.18;102461.44;5069624;28;20221;-71
2022/12/17 15:01:28;;;;;;;56.83;30.27;;;;;;;-1.00;93.13;102469.38;5071060;28;20027;-70
2022/12/17 15:03:55;;;;;;;58.28;30.23;;;;;;;-1.03;92.86;102478.16;5050977;28;20035;-70
2022/12/17 15:06:21;;;;;;;58.15;31.67;;;;;;;-1.04;92.78;102480.78;5069586;28;20025;-71
2022/12/17 15:08:48;;;;;;;55.15;27.58;;;;;;;-1.04;92.98;102483.44;5069968;28;20113;-70
2022/12/17 15:11:16;;;;;;;56.35;26.50;;;;;;;-1.03;92.82;102479.94;5070955;28;20032;-71
2022/12/17 15:13:42;;;;;;;54.58;27.83;;;;;;;-1.05;92.79;102485.22;5069721;28;20059;-71
2022/12/17 15:16:07;;;;;;;62.15;28.73;;;;;;;-1.07;93.42;102485.22;5070236;28;20062;-70
2022/12/17 15:18:33;;;;;;;58.47;29.60;;;;;;;-1.09;93.11;102486.94;5069926;28;20032;-71
2022/12/17 15:20:59;;;;;;;49.67;27.75;;;;;;;-1.11;93.15;102496.63;5070556;28;20036;-71
2022/12/17 15:23:24;;;;;;;54.22;28.63;;;;;;;-1.12;93.30;102496.63;5070412;28;20509;-70
2022/12/17 15:25:52;;;;;;;61.25;30.27;;;;;;;-1.15;93.41;102513.31;5070802;28;20021;-70
2022/12/17 15:28:18;;;;;;;55.03;28.73;;;;;;;-1.18;93.39;102510.69;5071302;28;20060;-71
2022/12/17 15:30:44;;;;;;;51.33;27.10;;;;;;;-1.23;93.28;102512.41;5071175;28;20130;-70
2022/12/17 15:33:10;;;;;;;57.95;28.10;;;;;;;-1.25;93.55;102506.25;5064315;28;20016;-70
2022/12/17 15:35:36;;;;;;;56.08;29.88;;;;;;;-1.23;93.95;102505.41;5066239;28;20024;-70
2022/12/17 15:38:03;;;;;;;56.40;29.15;;;;;;;-1.22;93.82;102508.91;5067699;28;20036;-71
2022/12/17 15:40:28;;;;;;;54.70;31.63;;;;;;;-1.24;93.34;102515.94;5067383;28;20039;-71
2022/12/17 15:43:11;;;;;;;55.65;27.65;;;;;;;-1.23;93.31;102517.69;5065750;28;20558;-71
2022/12/17 15:45:42;;;;;;;50.55;26.02;;;;;;;-1.23;93.59;102512.41;5067953;28;20115;-71
2022/12/17 15:48:08;;;;;;;55.63;27.23;;;;;;;-1.19;93.68;102519.47;5070829;28;20043;-71
2022/12/17 15:50:34;;;;;;;52.53;27.30;;;;;;;-1.19;93.65;102524.75;5068212;28;20123;-72
2022/12/17 15:52:59;;;;;;;56.97;30.08;;;;;;;-1.23;93.47;102517.69;5069001;28;20043;-70
2022/12/17 15:55:25;;;;;;;60.50;30.90;;;;;;;-1.21;93.49;102523.88;5069334;28;20028;-70
2022/12/17 15:57:50;;;;;;;58.58;31.30;;;;;;;-1.23;93.22;102520.31;5069541;28;20504;-70
2022/12/17 16:00:15;;;;;;;59.25;29.48;;;;;;;-1.24;93.34;102524.72;5050567;28;20029;-71
2022/12/17 16:02:41;;;;;;;63.50;32.47;;;;;;;-1.25;93.70;102533.50;5068316;28;20025;-70
2022/12/17 16:05:07;;;;;;;56.60;30.80;;;;;;;-1.25;93.33;102535.28;5068275;28;20169;-69
2022/12/17 16:07:32;;;;;;;62.72;32.20;;;;;;;-1.27;93.37;102535.28;5068392;28;20050;-70
2022/12/17 16:09:58;;;;;;;53.53;26.73;;;;;;;-1.24;93.70;102543.19;5067852;28;20052;-70
2022/12/17 16:12:23;;;;;;;53.75;27.67;;;;;;;-1.27;93.28;102532.63;5069060;28;20058;-70
2022/12/17 16:14:49;;;;;;;51.92;27.35;;;;;;;-1.26;93.62;102530.88;5068141;28;20052;-71
2022/12/17 16:17:14;;;;;;;56.35;31.02;;;;;;;-1.28;93.15;102522.09;5068138;28;20411;-71
2022/12/17 16:19:39;;;;;;;58.38;30.10;;;;;;;-1.29;93.32;102522.94;5068623;28;20051;-71
2022/12/17 16:22:05;;;;;;;62.97;29.85;;;;;;;-1.29;93.40;102531.75;5069234;28;20024;-71
2022/12/17 16:24:30;;;;;;;56.97;29.30;;;;;;;-1.29;93.03;102525.59;5067146;28;20040;-71
2022/12/17 16:26:55;;;;;;;64.07;31.40;;;;;;;-1.31;93.33;102524.72;5050571;28;20062;-71
2022/12/17 16:29:20;;;;;;;53.63;29.35;;;;;;;-1.32;93.78;102530.84;5069600;28;20040;-71
2022/12/17 16:31:48;;;;;;;58.33;32.42;;;;;;;-1.32;93.90;102531.75;5073717;28;20026;-71
2022/12/17 16:34:13;;;;;;;63.45;31.98;;;;;;;-1.32;93.65;102530.84;5073915;28;20067;-72
2022/12/17 16:36:38;;;;;;;61.13;31.67;;;;;;;-1.36;93.00;102532.63;5079156;28;20479;-72
2022/12/17 16:39:04;;;;;;;56.28;30.25;;;;;;;-1.41;93.08;102531.69;5058529;28;20456;-71
2022/12/17 16:41:31;;;;;;;61.55;29.35;;;;;;;-1.45;93.22;102528.19;5074029;28;20029;-71
2022/12/17 16:43:56;;;;;;;59.60;31.52;;;;;;;-1.46;94.38;102528.19;5073023;28;20574;-71
2022/12/17 16:46:31;;;;;;;56.10;29.00;;;;;;;-1.44;94.37;102529.94;5071773;28;20028;-71
2022/12/17 16:48:58;;;;;;;59.35;28.55;;;;;;;-1.44;93.85;102532.56;5096214;28;20039;-69
2022/12/17 16:51:26;;;;;;;60.08;29.50;;;;;;;-1.43;93.76;102531.69;5105075;28;20057;-70
2022/12/17 16:53:51;;;;;;;61.70;32.15;;;;;;;-1.41;93.77;102537.88;5103646;28;20637;-70
2022/12/17 16:56:20;;;;;;;67.53;31.80;;;;;;;-1.44;93.57;102540.47;5083860;28;20019;-69
2022/12/17 16:58:45;;;;;;;64.00;30.35;;;;;;;-1.46;94.05;102542.25;5097970;28;20079;-71
2022/12/17 17:01:11;;;;;;;66.60;33.60;;;;;;;-1.48;93.98;102532.56;5100266;28;20052;-70
2022/12/17 17:03:40;;;;;;;60.55;32.67;;;;;;;-1.55;93.85;102539.56;5099111;28;20039;-70
2022/12/17 17:06:06;;;;;;;61.92;32.97;;;;;;;-1.53;93.69;102529.03;5097790;28;20065;-70
2022/12/17 17:08:36;;;;;;;60.50;31.77;;;;;;;-1.58;93.14;102531.66;5080297;28;21434;-70
2022/12/17 17:11:10;;;;;;;56.03;28.35;;;;;;;-1.64;92.53;102537.78;5074821;28;20040;-69
2022/12/17 17:13:36;;;;;;;61.08;30.38;;;;;;;-1.68;93.49;102538.63;5097948;28;20020;-72
2022/12/17 17:16:02;;;;;;;53.40;29.20;;;;;;;-1.69;92.92;102539.50;5099055;28;20016;-69
2022/12/17 17:18:27;;;;;;;60.20;32.35;;;;;;;-1.72;93.19;102538.63;5101142;28;20443;-69
2022/12/17 17:20:54;;;;;;;55.05;29.02;;;;;;;-1.74;93.62;102550.88;5098414;28;20032;-68
2022/12/17 17:23:19;;;;;;;53.63;29.65;;;;;;;-1.77;93.63;102557.03;5088603;28;20031;-71
2022/12/17 17:25:45;;;;;;;64.10;32.67;;;;;;;-1.79;94.03;102557.03;5091066;28;20024;-67
2022/12/17 17:28:10;;;;;;;59.60;30.13;;;;;;;-1.80;94.19;102557.00;5100188;28;20024;-69
2022/12/17 17:30:35;;;;;;;58.38;31.65;;;;;;;-1.80;94.33;102551.72;5100899;28;20098;-69
2022/12/17 17:33:00;;;;;;;60.95;30.00;;;;;;;-1.79;94.28;102551.78;5077805;28;20047;-69
2022/12/17 17:35:27;;;;;;;62.08;31.15;;;;;;;-1.78;94.23;102563.19;5096469;28;20496;-71
2022/12/17 17:37:52;;;;;;;62.50;31.83;;;;;;;-1.77;94.44;102562.31;5098964;28;20035;-69
2022/12/17 17:40:17;;;;;;;59.50;29.25;;;;;;;-1.77;94.40;102567.59;5098769;28;20028;-69
2022/12/17 17:42:43;;;;;;;57.67;29.00;;;;;;;-1.77;93.77;102562.31;5100873;28;20036;-70
2022/12/17 17:45:08;;;;;;;64.43;29.45;;;;;;;-1.81;93.32;102566.66;5095464;28;20032;-68
2022/12/17 17:47:34;;;;;;;55.75;26.27;;;;;;;-1.89;92.65;102573.63;5097649;28;20016;-69
2022/12/17 17:49:59;;;;;;;54.38;27.88;;;;;;;-1.92;93.33;102571.00;5074517;28;20061;-70
2022/12/17 17:52:24;;;;;;;51.53;25.77;;;;;;;-1.95;93.75;102563.06;5088767;28;20043;-69
2022/12/17 17:54:49;;;;;;;48.63;23.80;;;;;;;-1.98;93.24;102565.69;5097689;28;20032;-70
2022/12/17 17:57:15;;;;;;;50.97;26.80;;;;;;;-2.06;92.85;102570.91;5098504;28;20058;-70
2022/12/17 17:59:40;;;;;;;54.30;26.38;;;;;;;-2.08;92.87;102571.75;5101752;28;20076;-69
2022/12/17 18:02:05;;;;;;;61.80;27.02;;;;;;;-2.12;92.26;102563.84;5099489;28;20028;-71
2022/12/17 18:04:31;;;;;;;59.50;27.85;;;;;;;-2.13;93.22;102566.47;5098268;28;20337;-71
2022/12/17 18:06:56;;;;;;;61.10;29.42;;;;;;;-2.14;93.23;102576.13;5097796;28;20028;-70
2022/12/17 18:09:22;;;;;;;52.22;25.27;;;;;;;-2.15;93.43;102568.22;5099966;28;20150;-70
2022/12/17 18:11:47;;;;;;;53.72;26.90;;;;;;;-2.18;93.23;102570.81;5105569;28;20031;-70
2022/12/17 18:14:12;;;;;;;49.25;26.83;;;;;;;-2.21;93.06;102569.06;5104540;28;20038;-70
2022/12/17 18:16:42;;;;;;;50.47;23.00;;;;;;;-2.20;93.49;102568.16;5108498;28;20058;-71
2022/12/17 18:19:19;;;;;;;54.53;26.95;;;;;;;-2.26;92.85;102577.78;5109036;28;20044;-70
2022/12/17 18:21:46;;;;;;;57.58;29.30;;;;;;;-2.30;93.18;102568.97;5103904;28;20051;-70
2022/12/17 18:24:15;;;;;;;56.55;28.17;;;;;;;-2.34;93.37;102569.84;5089106;28;20073;-70
2022/12/17 18:26:42;;;;;;;58.55;31.10;;;;;;;-2.31;93.39;102570.72;5107194;28;20039;-70
2022/12/17 18:29:13;;;;;;;64.25;27.48;;;;;;;-2.30;93.52;102571.59;5109412;28;20039;-70
2022/12/17 18:31:38;;;;;;;55.50;28.33;;;;;;;-2.28;93.47;102565.47;5102193;28;20039;-70
2022/12/17 18:34:04;;;;;;;56.38;26.58;;;;;;;-2.27;93.08;102566.34;5104423;28;20088;-71
2022/12/17 18:36:36;;;;;;;46.45;21.63;;;;;;;-2.24;93.38;102561.13;5109091;28;20028;-71
2022/12/17 18:39:05;;;;;;;55.45;28.15;;;;;;;-2.22;92.94;102561.13;5110117;28;20020;-71
2022/12/17 18:44:16;;;;;;;60.55;29.25;;;;;;;-2.19;92.85;102569.94;5090248;28;20038;-71
2022/12/17 18:46:41;;;;;;;63.42;31.13;;;;;;;-2.18;92.94;102561.16;5090724;28;20024;-69
2022/12/17 18:49:10;;;;;;;58.78;28.60;;;;;;;-2.16;92.67;102564.69;5089705;28;20013;-70
2022/12/17 18:51:37;;;;;;;57.70;27.65;;;;;;;-2.14;92.38;102562.06;5090170;28;20021;-70
2022/12/17 18:54:07;;;;;;;58.60;29.65;;;;;;;-2.17;92.49;102568.19;5090326;28;20080;-70
2022/12/17 18:56:34;;;;;;;69.18;36.97;;;;;;;-2.17;92.28;102573.44;5090389;28;20054;-70
2022/12/17 18:58:59;;;;;;;59.85;31.40;;;;;;;-2.19;91.66;102577.84;5090524;28;20038;-70
2022/12/17 19:01:31;;;;;;;58.85;31.17;;;;;;;-2.21;92.55;102574.31;5101131;28;20043;-70
2022/12/17 19:03:56;;;;;;;53.67;29.33;;;;;;;-2.22;92.50;102575.19;5110524;28;20048;-70
2022/12/17 19:06:23;;;;;;;58.38;30.40;;;;;;;-2.19;92.30;102574.31;5110292;28;20050;-70
2022/12/17 19:08:49;;;;;;;55.70;29.13;;;;;;;-2.20;92.48;102570.78;5089698;28;20041;-70
2022/12/17 19:11:17;;;;;;;59.40;29.92;;;;;;;-2.22;92.05;102582.22;5090491;28;20051;-70
2022/12/17 19:13:43;;;;;;;50.45;26.58;;;;;;;-2.25;91.94;102574.28;5090339;28;20031;-70
2022/12/17 19:16:15;;;;;;;50.17;25.90;;;;;;;-2.30;92.14;102582.13;5090248;28;20094;-70
2022/12/17 19:18:40;;;;;;;54.38;26.73;;;;;;;-2.34;91.77;102586.50;5101610;28;20030;-71
2022/12/17 19:21:09;;;;;;;52.30;25.42;;;;;;;-2.38;91.60;102591.72;5081632;28;20087;-71
2022/12/17 19:23:35;;;;;;;46.67;23.60;;;;;;;-2.38;91.54;102597.00;5097931;28;20171;-70
2022/12/17 19:26:13;;;;;;;45.22;25.42;;;;;;;-2.40;91.53;102607.53;5095843;28;20024;-70
2022/12/17 19:28:40;;;;;;;48.47;24.88;;;;;;;-2.39;91.48;102604.00;5102095;28;20081;-70
2022/12/17 19:31:06;;;;;;;56.50;27.23;;;;;;;-2.37;91.81;102609.28;5100678;28;21063;-70
2022/12/17 19:33:32;;;;;;;54.67;24.55;;;;;;;-2.37;91.81;102599.66;5108403;28;20372;-70
2022/12/17 19:36:09;;;;;;;53.67;25.98;;;;;;;-2.37;91.30;102612.81;5102466;28;20032;-71
2022/12/17 19:38:35;;;;;;;51.17;25.75;;;;;;;-2.36;91.79;102613.69;5086054;28;20023;-70
2022/12/17 19:41:05;;;;;;;50.55;27.50;;;;;;;-2.35;91.45;102610.19;5113050;28;20024;-70
2022/12/17 19:43:31;;;;;;;52.92;26.13;;;;;;;-2.34;91.37;102599.66;5111468;28;20032;-70
2022/12/17 19:46:08;;;;;;;48.08;23.75;;;;;;;-2.32;91.27;102604.94;5107616;28;20024;-70
2022/12/17 19:48:35;;;;;;;54.05;26.38;;;;;;;-2.33;91.29;102597.91;5111217;28;20024;-70
2022/12/17 19:51:03;;;;;;;57.70;28.23;;;;;;;-2.33;91.41;102600.53;5113835;28;20024;-70
2022/12/17 19:53:30;;;;;;;50.90;25.00;;;;;;;-2.34;91.81;102596.16;5104491;28;20087;-69
2022/12/17 19:56:07;;;;;;;50.13;26.48;;;;;;;-2.34;91.58;102599.66;5092732;28;20095;-70
2022/12/17 19:58:32;;;;;;;44.85;22.17;;;;;;;-2.33;91.53;102605.81;5111554;28;20037;-70
2022/12/17 20:01:04;;;;;;;51.45;25.42;;;;;;;-2.34;91.47;102601.44;5111056;28;20024;-69
2022/12/17 20:03:29;;;;;;;47.75;23.23;;;;;;;-2.38;90.76;102604.91;5109160;28;20036;-70
2022/12/17 20:05:54;;;;;;;58.55;28.02;;;;;;;-2.42;90.96;102605.72;5111794;28;20273;-69
2022/12/17 20:08:20;;;;;;;50.90;28.15;;;;;;;-2.46;91.23;102604.81;5104867;28;20058;-69
2022/12/17 20:10:45;;;;;;;51.42;24.25;;;;;;;-2.48;91.58;102610.06;5114262;28;20048;-69
2022/12/17 20:13:10;;;;;;;51.63;27.65;;;;;;;-2.44;91.85;102623.28;5111461;28;20020;-69
2022/12/17 20:15:36;;;;;;;51.40;26.40;;;;;;;-2.43;91.80;102633.81;5112203;28;20062;-69
2022/12/17 20:18:01;;;;;;;54.40;29.02;;;;;;;-2.42;91.62;102632.94;5113796;28;20039;-69
2022/12/17 20:20:26;;;;;;;53.15;27.65;;;;;;;-2.41;91.76;102636.47;5107688;28;20032;-69
2022/12/17 20:22:51;;;;;;;59.75;29.23;;;;;;;-2.40;91.54;102638.22;5111676;28;20024;-70
2022/12/17 20:25:17;;;;;;;47.45;25.58;;;;;;;-2.37;91.35;102638.25;5108284;28;20020;-70
2022/12/17 20:27:43;;;;;;;52.38;24.67;;;;;;;-2.38;90.68;102640.00;5110697;28;20027;-69
2022/12/17 20:30:09;;;;;;;52.53;26.95;;;;;;;-2.40;90.87;102632.94;5111587;28;20088;-71
2022/12/17 20:32:34;;;;;;;50.42;25.70;;;;;;;-2.43;90.89;102632.91;5111073;28;20094;-69
2022/12/17 20:34:59;;;;;;;54.15;28.10;;;;;;;-2.43;90.95;102623.28;5112963;28;20024;-69
2022/12/17 20:37:25;;;;;;;48.58;26.70;;;;;;;-2.44;90.93;102621.53;5110392;28;20024;-69
2022/12/17 20:39:50;;;;;;;50.90;28.30;;;;;;;-2.47;90.29;102617.09;5111839;28;20111;-70
2022/12/17 20:42:16;;;;;;;52.80;27.05;;;;;;;-2.46;91.09;102618.88;5109745;28;20036;-69
2022/12/17 20:44:42;;;;;;;52.35;26.95;;;;;;;-2.48;91.47;102612.69;5089915;28;20058;-70
2022/12/17 20:47:07;;;;;;;50.67;26.45;;;;;;;-2.48;91.35;102610.06;5105643;28;20024;-69
2022/12/17 20:49:32;;;;;;;56.72;26.77;;;;;;;-2.52;91.66;102610.94;5105761;28;20048;-70
2022/12/17 20:51:58;;;;;;;53.95;27.90;;;;;;;-2.49;92.21;102608.31;5108329;28;20054;-70
2022/12/17 20:54:23;;;;;;;50.70;25.73;;;;;;;-2.48;92.37;102615.31;5108583;28;20016;-70
2022/12/17 20:56:49;;;;;;;54.80;27.73;;;;;;;-2.43;92.57;102611.84;5100121;28;20048;-70
2022/12/17 20:59:17;;;;;;;54.58;27.35;;;;;;;-2.40;91.74;102611.88;5090312;28;20039;-70
2022/12/17 21:01:42;;;;;;;55.85;27.02;;;;;;;-2.41;91.71;102611.00;5108874;28;20057;-69
2022/12/17 21:04:11;;;;;;;56.40;28.77;;;;;;;-2.45;91.51;102617.13;5111250;28;20024;-69
2022/12/17 21:06:39;;;;;;;49.83;25.17;;;;;;;-2.48;91.94;102624.97;5107883;28;20024;-70
2022/12/17 21:09:05;;;;;;;52.40;24.85;;;;;;;-2.48;91.77;102623.22;5107561;28;20043;-69
2022/12/17 21:11:32;;;;;;;57.13;26.98;;;;;;;-2.52;91.56;102612.66;5112194;28;20020;-70
2022/12/17 21:14:00;;;;;;;52.95;23.20;;;;;;;-2.51;91.62;102615.31;5093296;28;20087;-70
2022/12/17 21:16:29;;;;;;;56.15;23.75;;;;;;;-2.49;91.99;102613.59;5107373;28;20060;-70
2022/12/17 21:18:56;;;;;;;59.58;26.10;;;;;;;-2.49;91.64;102624.13;5109142;28;20031;-70
2022/12/17 21:21:24;;;;;;;56.10;25.70;;;;;;;-2.49;91.35;102623.22;5108206;28;20487;-70
2022/12/17 21:23:50;;;;;;;52.95;26.52;;;;;;;-2.49;91.26;102629.38;5105998;28;20004;-70
2022/12/17 21:26:22;;;;;;;49.47;26.55;;;;;;;-2.48;91.54;102619.72;5109073;28;20029;-70
2022/12/17 21:28:51;;;;;;;53.28;25.58;;;;;;;-2.47;91.65;102626.75;5108559;28;20023;-70
2022/12/17 21:31:22;;;;;;;57.83;27.50;;;;;;;-2.49;91.08;102636.38;5110442;28;20031;-72
2022/12/17 21:33:49;;;;;;;45.28;23.10;;;;;;;-2.51;91.27;102635.50;5097530;28;20047;-69
2022/12/17 21:36:16;;;;;;;54.08;28.15;;;;;;;-2.58;90.94;102631.91;5104488;28;20073;-69
2022/12/17 21:38:41;;;;;;;49.58;26.00;;;;;;;-2.59;90.79;102632.78;5088644;28;20024;-68
2022/12/17 21:41:10;;;;;;;50.97;25.60;;;;;;;-2.60;91.16;102628.38;5102018;28;20031;-69
2022/12/17 21:43:35;;;;;;;53.35;24.80;;;;;;;-2.62;91.05;102627.50;5098105;28;20048;-69
2022/12/17 21:46:01;;;;;;;47.67;25.05;;;;;;;-2.67;90.88;102632.69;5103696;28;20016;-69
2022/12/17 21:48:27;;;;;;;46.50;26.50;;;;;;;-2.67;91.00;102634.44;5101809;28;20055;-70
2022/12/17 21:50:52;;;;;;;47.45;22.60;;;;;;;-2.69;91.04;102630.94;5101130;28;20023;-70
2022/12/17 21:53:18;;;;;;;45.13;23.52;;;;;;;-2.67;91.15;102634.44;5085727;28;20077;-69
2022/12/17 21:55:43;;;;;;;40.58;21.27;;;;;;;-2.67;90.83;102639.72;5081068;28;20482;-69
2022/12/17 21:58:08;;;;;;;46.85;24.20;;;;;;;-2.66;90.41;102642.34;5098521;28;20024;-70
2022/12/17 22:00:34;;;;;;;47.40;24.85;;;;;;;-2.66;90.41;102652.00;5094120;28;20028;-70
2022/12/17 22:02:59;;;;;;;46.85;24.23;;;;;;;-2.66;90.58;102644.13;5099939;28;20028;-70
2022/12/17 22:05:25;;;;;;;48.60;23.67;;;;;;;-2.69;90.19;102639.69;5098329;28;20028;-70
2022/12/17 22:07:51;;;;;;;46.13;23.38;;;;;;;-2.70;90.38;102642.31;5099055;28;20035;-70
2022/12/17 22:10:16;;;;;;;45.90;23.27;;;;;;;-2.71;90.60;102640.53;5078181;28;20053;-71
2022/12/17 22:15:25;;;;;;;45.20;22.65;;;;;;;-2.74;89.87;102653.66;5091507;28;20039;-70
2022/12/17 22:17:51;;;;;;;49.55;25.35;;;;;;;-2.75;89.91;102660.69;5096446;28;20388;-70
2022/12/17 22:20:17;;;;;;;50.70;22.85;;;;;;;-2.76;89.72;102665.94;5103575;28;20035;-71
2022/12/17 22:22:44;;;;;;;47.63;24.02;;;;;;;-2.79;90.00;102671.16;5101271;28;20015;-69
2022/12/17 22:25:10;;;;;;;41.40;20.83;;;;;;;-2.81;89.34;102674.66;5095104;28;20024;-69
2022/12/17 22:27:36;;;;;;;41.35;21.88;;;;;;;-2.86;88.70;102680.72;5099881;28;20032;-70
2022/12/17 22:33:04;;;;;;;47.60;22.90;;;;;;;-3.01;88.90;102676.16;5096497;28;20100;-70
2022/12/17 22:35:38;;;;;;;42.65;22.85;;;;;;;-3.06;88.70;102667.31;5101416;28;20027;-70
2022/12/17 22:38:05;;;;;;;42.53;20.25;;;;;;;-3.10;88.82;102682.19;5092637;28;20027;-69
2022/12/17 22:40:34;;;;;;;46.25;21.42;;;;;;;-3.13;88.06;102669.00;5085925;28;20027;-70
2022/12/17 22:45:44;;;;;;;42.78;21.20;;;;;;;-3.12;89.19;102648.84;5094952;28;20039;-70
2022/12/17 22:48:11;;;;;;;41.30;22.38;;;;;;;-3.14;89.16;102654.06;5093073;28;20020;-70
2022/12/17 22:50:38;;;;;;;45.35;22.92;;;;;;;-3.14;88.55;102653.22;5092970;28;20024;-70
2022/12/17 22:53:04;;;;;;;46.15;24.63;;;;;;;-3.19;87.90;102656.66;5095881;28;20035;-70
2022/12/17 22:55:30;;;;;;;47.78;24.27;;;;;;;-3.24;87.85;102663.59;5096155;28;20395;-69
2022/12/17 22:57:55;;;;;;;43.55;22.17;;;;;;;-3.28;87.51;102661.81;5096432;28;20459;-70
2022/12/17 23:00:24;;;;;;;43.70;19.95;;;;;;;-3.31;87.48;102661.72;5089428;28;20024;-70
2022/12/17 23:02:52;;;;;;;45.55;22.67;;;;;;;-3.34;87.40;102661.69;5097550;28;20032;-69
2022/12/17 23:05:19;;;;;;;41.95;21.88;;;;;;;-3.37;88.22;102672.16;5097511;28;20038;-71
2022/12/17 23:07:44;;;;;;;41.83;22.17;;;;;;;-3.38;87.98;102670.44;5097283;28;20043;-69
2022/12/17 23:10:09;;;;;;;41.05;22.20;;;;;;;-3.45;87.28;102669.44;5098839;28;20044;-69
2022/12/17 23:12:50;;;;;;;41.97;19.80;;;;;;;-3.49;86.78;102667.63;5095856;28;20092;-69
2022/12/17 23:15:29;;;;;;;40.88;21.90;;;;;;;-3.50;86.65;102652.72;5095369;28;20024;-70
2022/12/17 23:17:57;;;;;;;40.28;21.17;;;;;;;-3.57;87.67;102643.88;5091046;28;20035;-69
2022/12/17 23:20:24;;;;;;;42.08;21.58;;;;;;;-3.61;87.58;102642.06;5099258;28;20099;-70
2022/12/17 23:22:49;;;;;;;39.47;19.45;;;;;;;-3.61;88.01;102641.19;5097830;28;20077;-70
2022/12/17 23:25:15;;;;;;;40.53;19.90;;;;;;;-3.62;87.62;102629.75;5102865;28;20552;-70
2022/12/17 23:27:41;;;;;;;43.72;20.88;;;;;;;-3.61;87.90;102635.94;5103533;28;20024;-70
2022/12/17 23:30:07;;;;;;;43.80;23.25;;;;;;;-3.70;87.02;102641.94;5099422;28;20158;-70
2022/12/17 23:32:33;;;;;;;41.88;21.23;;;;;;;-3.69;87.19;102641.03;5103244;28;20467;-70
2022/12/17 23:34:59;;;;;;;39.60;20.73;;;;;;;-3.75;87.07;102641.88;5103336;28;20054;-69
2022/12/17 23:37:24;;;;;;;43.88;22.30;;;;;;;-3.79;87.08;102640.03;5095976;28;20016;-70
2022/12/17 23:39:49;;;;;;;40.47;20.30;;;;;;;-3.82;86.59;102642.63;5094194;28;20115;-70
2022/12/17 23:42:15;;;;;;;43.78;21.52;;;;;;;-3.87;85.99;102647.78;5104344;28;20051;-70
2022/12/17 23:44:40;;;;;;;45.85;21.27;;;;;;;-3.90;86.03;102649.50;5100383;28;20088;-70
2022/12/17 23:47:05;;;;;;;45.25;21.95;;;;;;;-3.91;85.54;102651.25;5082587;28;20029;-70
2022/12/17 23:49:30;;;;;;;42.60;20.98;;;;;;;-3.94;85.19;102656.47;5097590;28;20020;-70
2022/12/17 23:51:56;;;;;;;40.92;22.10;;;;;;;-3.97;85.28;102661.63;5100969;28;20028;-69
2022/12/17 23:54:21;;;;;;;46.97;20.95;;;;;;;-4.02;85.35;102665.94;5101404;28;20016;-70
2022/12/17 23:56:46;;;;;;;43.03;20.88;;;;;;;-4.08;85.28;102660.59;5100452;28;20035;-70
2022/12/17 23:59:12;;;;;;;47.22;21.77;;;;;;;-4.14;84.94;102657.84;5101134;28;20076;-71
